• Join FlightAware (Why Join?)
  • Login
  • US Flag 
07:41PM EDT


 

Airport Tracker/Info


-or-


 

Live Flight TrackerFlight Track Log ✈ N400PU ✈ 26-Jul-2013 ✈ KHYA - KTYQ

Flight Track Log - Related Links

Times and Time Zones

All times are in EDT time to prevent confusion due to time zone crossing. See the N400PU flight status page for this flight to view local times or setup timezone preferences in your user account.

Time Position Orientation Groundspeed Altitude Reporting Facility
EDT Latitude Longitude Course Direction KTS MPH feet Rate Location/Type
01:54PM 41.7653 -70.2942 290° West 225 259 4,100  Level Boston Center
01:55PM 41.8225 -70.2336 38° Northeast 244 281 6,600 2,520 Climbing Boston Center
01:56PM 41.8858 -70.1731 35° Northeast 261 300 9,100 2,280 Climbing Boston Center
01:57PM 41.9533 -70.1036 37° Northeast 282 325 11,200 1,860 Climbing Boston Center
01:58PM 42.0476 -70.1839 287° West  Level FlightAware Approximate
01:58PM 42.0433 -70.1253 350° North 273 314 12,900  Level Boston Center
01:59PM 42.0826 -70.3143 294° West  Level FlightAware Approximate
01:59PM 42.0728 -70.2444 288° West 238 274 14,900  Level Boston Center
02:00PM 42.1205 -70.4433 290° West  Level FlightAware Approximate
02:00PM 42.1019 -70.3611 289° West 278 320 16,900  Level Boston Center
02:01PM 42.1311 -70.4775 289° West 313 360 18,500 1,620 Climbing Boston Center
02:02PM 42.1558 -70.5806 288° West 323 372 20,200 1,380 Climbing Boston Center
02:03PM 42.1850 -70.7028 288° West 328 377 21,400 1,200 Climbing Boston Center
02:04PM 42.2325 -70.8194 299° West 345 397 22,600 1,260 Climbing Boston Center
02:05PM 42.3297 -70.9150 324° Northwest 361 415 23,900 1,200 Climbing Boston Center
02:06PM 42.4225 -70.9917 329° Northwest 377 434 25,000 960 Climbing Boston Center
02:07PM 42.5003 -71.0544 329° Northwest 390 449 25,900 1,140 Climbing Boston Center
02:08PM 42.6203 -71.1592 327° Northwest 415 478 27,300 1,200 Climbing Boston Center
02:09PM 42.7214 -71.2447 328° Northwest 423 487 28,400 1,080 Climbing Boston Center
02:10PM 42.8203 -71.3361 326° Northwest 428 493 29,500 1,080 Climbing Boston Center
02:11PM 42.8714 -71.4711 297° West 397 457 30,600 1,020 Climbing Boston Center
02:12PM 42.8869 -71.5928 280° West 372 428 31,600 960 Climbing Boston Center
02:13PM 42.8964 -71.7372 275° West 372 428 32,600 960 Climbing Boston Center
02:14PM 42.9056 -71.8789 275° West 377 434 33,500 840 Climbing Boston Center
02:15PM 42.9164 -72.0233 276° West 382 440 34,300 900 Climbing Boston Center
02:16PM 42.9272 -72.1678 276° West 387 445 35,300 960 Climbing Boston Center
02:17PM 42.9400 -72.3294 276° West 387 445 36,300 900 Climbing Boston Center
02:18PM 42.9506 -72.4742 276° West 387 445 37,200 660 Climbing Boston Center
02:19PM 42.9567 -72.5875 274° West 387 445 37,700 360 Climbing Boston Center
02:20PM 42.9586 -72.7664 271° West 387 445 38,000 120 Climbing Boston Center
02:21PM 42.9683 -72.9225 275° West 406 467 38,000  Level Boston Center
02:22PM 42.9822 -73.0672 278° West 421 484 38,000  Level Boston Center
02:23PM 42.9917 -73.2350 274° West 438 504 38,000  Level Boston Center
02:24PM 42.9967 -73.3967 272° West 444 511 38,000 -60 Level Boston Center
02:25PM 43.0075 -73.5617 275° West 439 505 37,900  Descending Boston Center
02:26PM 43.0183 -73.7294 275° West 439 505 38,000  Climbing Boston Center
02:27PM 43.0308 -73.8944 276° West 445 512 38,000 -60 Level Boston Center
02:28PM 43.0411 -74.0594 275° West 445 512 37,900  Descending Boston Center
02:29PM 43.0514 -74.2244 275° West 445 512 38,000  Climbing Boston Center
02:30PM 43.0631 -74.3897 276° West 445 512 38,000  Level Boston Center
02:31PM 43.0728 -74.5547 275° West 445 512 38,000  Level Boston Center
02:32PM 43.0819 -74.7228 274° West 445 512 38,000 -60 Level Boston Center
02:33PM 43.0911 -74.8825 275° West 440 506 37,900  Descending Boston Center
02:34PM 43.1000 -75.0450 274° West 440 506 38,000  Climbing Boston Center
02:35PM 43.1089 -75.2075 274° West 434 499 37,900  Descending Boston Center
02:36PM 43.1150 -75.3697 273° West 434 499 38,000  Climbing Boston Center
02:37PM 43.1028 -75.5258 264° West 429 494 38,000  Level Boston Center
02:38PM 43.0839 -75.6811 261° West 421 484 38,000  Level Boston Center
02:39PM 43.0644 -75.8394 261° West 421 484 38,000  Level Boston Center
02:40PM 43.0411 -75.9914 258° West 426 490 38,000  Level Boston Center
02:41PM 43.0194 -76.1464 259° West 426 490 38,000 -60 Level Boston Center
02:43PM 42.9714 -76.4911 259° West 404 465 37,900  Descending Cleveland Center
02:44PM 42.9519 -76.6486 260° West 415 478 38,000  Climbing Cleveland Center
02:45PM 42.9311 -76.7803 258° West 415 478 38,000  Level Cleveland Center
02:46PM 42.9089 -76.9319 259° West 410 472 38,000  Level Cleveland Center
02:47PM 42.8803 -77.0781 255° West 410 472 38,000  Level Cleveland Center
02:48PM 42.8364 -77.2136 246° West 410 472 38,000  Level Cleveland Center
02:49PM 42.7942 -77.3489 247° West 398 458 38,000  Level Cleveland Center
02:50PM 42.7500 -77.4842 246° West 398 458 38,000  Level Cleveland Center
02:51PM 42.6978 -77.6422 246° West 398 458 38,000  Level Cleveland Center
02:52PM 42.6492 -77.7800 244° Southwest 409 471 38,000  Level Cleveland Center
02:53PM 42.6025 -77.9203 246° West 409 471 38,000  Level Cleveland Center
02:54PM 42.5578 -78.0575 246° West 403 464 38,000  Level Cleveland Center
02:55PM 42.5086 -78.1975 245° Southwest 403 464 38,000  Level Cleveland Center
02:56PM 42.4614 -78.3372 245° Southwest 403 464 38,000  Level Cleveland Center
02:57PM 42.4139 -78.4794 246° West 403 464 38,000  Level Cleveland Center
02:58PM 42.3664 -78.6217 246° West 403 464 38,000  Level Cleveland Center
02:59PM 42.3186 -78.7581 245° Southwest 403 464 38,000  Level Cleveland Center
03:00PM 42.2667 -78.8969 243° Southwest 408 470 38,000  Level Cleveland Center
03:01PM 42.2186 -79.0356 245° Southwest 408 470 38,000  Level Cleveland Center
03:02PM 42.1744 -79.1794 248° West 408 470 38,000  Level Cleveland Center
03:03PM 42.1281 -79.3233 247° West 413 475 38,000  Level Cleveland Center
03:04PM 42.0797 -79.4642 245° Southwest 418 481 38,000  Level Cleveland Center
03:05PM 42.0308 -79.6019 245° Southwest 418 481 38,000  Level Cleveland Center
03:06PM 41.9778 -79.7453 244° Southwest 418 481 38,000  Level Cleveland Center
03:07PM 41.9286 -79.8825 244° Southwest 418 481 38,000  Level Cleveland Center
03:08PM 41.8753 -80.0200 243° Southwest 418 481 38,000  Level Cleveland Center
03:09PM 41.8236 -80.1597 244° Southwest 413 475 38,000  Level Cleveland Center
03:10PM 41.7803 -80.2825 245° Southwest 413 475 38,000  Level Cleveland Center
03:11PM 41.7264 -80.4189 242° Southwest 413 475 38,000  Level Cleveland Center
03:12PM 41.6764 -80.5553 244° Southwest 408 470 38,000  Level Cleveland Center
03:13PM 41.6264 -80.6886 243° Southwest 408 470 38,000  Level Cleveland Center
03:14PM 41.5761 -80.8247 244° Southwest 408 470 38,000  Level Cleveland Center
03:15PM 41.5236 -80.9603 243° Southwest 408 470 38,000  Level Cleveland Center
03:16PM 41.4669 -81.1069 243° Southwest 408 470 38,000  Level Cleveland Center
03:17PM 41.4139 -81.2447 243° Southwest 408 470 38,000  Level Cleveland Center
03:18PM 41.3631 -81.3772 243° Southwest 402 463 38,000  Level Cleveland Center
03:19PM 41.3183 -81.4956 243° Southwest 402 463 38,000  Level Cleveland Center
03:20PM 41.2672 -81.6328 244° Southwest 402 463 38,000  Level Cleveland Center
03:21PM 41.2139 -81.7672 242° Southwest 402 463 38,000  Level Cleveland Center
03:22PM 41.1622 -81.8986 242° Southwest 414 476 38,000  Level Cleveland Center
03:23PM 41.1044 -82.0381 241° Southwest 425 489 38,000  Level Cleveland Center
03:24PM 41.0547 -82.1692 243° Southwest 425 489 38,000  Level Cleveland Center
03:25PM 40.9964 -82.3108 241° Southwest 411 473 38,000  Level Cleveland Center
03:27PM 40.9303 -82.5283 248° West 397 457 38,000  Level Indianapolis Center
03:28PM 40.8981 -82.6664 253° West 391 450 38,000  Level Indianapolis Center
03:29PM 40.8672 -82.8072 254° West 394 453 38,000  Level Indianapolis Center
03:30PM 40.8303 -82.9683 253° West 391 450 38,000  Level Indianapolis Center
03:31PM 40.7989 -83.1061 253° West 388 447 38,000  Level Indianapolis Center
03:32PM 40.7694 -83.2417 254° West 379 436 38,000  Level Indianapolis Center
03:33PM 40.7378 -83.3753 253° West 379 436 38,000  Level Indianapolis Center
03:34PM 40.7075 -83.5097 253° West 381 438 38,000  Level Indianapolis Center
03:35PM 40.6756 -83.6447 253° West 383 441 38,000 -480 Level Indianapolis Center
03:36PM 40.6453 -83.7772 253° West 378 435 37,100 -1,020 Descending Indianapolis Center
03:37PM 40.6058 -83.9211 250° West 357 411 36,000 -540 Descending Indianapolis Center
03:38PM 40.5731 -84.0392 250° West 344 396 36,000 -540 Level Indianapolis Center
03:39PM 40.5400 -84.1600 250° West 347 399 34,900 -1,500 Descending Indianapolis Center
03:40PM 40.5053 -84.2869 250° West 364 419 32,900 -1,920 Descending Indianapolis Center
03:41PM 40.4694 -84.4194 250° West 379 436 31,000 -960 Descending Indianapolis Center
03:42PM 40.4308 -84.5553 250° West 392 451 31,000 -780 Level Indianapolis Center
03:44PM 40.3922 -84.6950 250° West 404 465 29,500 -2,040 Descending Indianapolis Center
03:45PM 40.3472 -84.8558 250° West 402 463 26,800 -2,580 Descending Indianapolis Center
03:46PM 40.3061 -84.9942 249° West 402 463 24,200 -2,520 Descending Indianapolis Center
03:47PM 40.2667 -85.1333 250° West 408 470 21,700 -2,460 Descending Indianapolis Center
03:48PM 40.2272 -85.2683 249° West 402 463 19,200 -2,400 Descending Indianapolis Center
03:49PM 40.1908 -85.3986 250° West 386 444 16,800 -2,280 Descending Indianapolis Center
03:50PM 40.1533 -85.5278 249° West 382 440 14,500 -2,520 Descending Indianapolis Center
03:51PM 40.1117 -85.6731 249° West 361 415 11,700 -2,460 Descending Indianapolis Center
03:52PM 40.0811 -85.7831 250° West 328 377 9,500 -2,160 Descending Indianapolis Center
03:53PM 40.0714 -85.8803 263° West 282 325 7,300 -2,580 Descending Indianapolis Center
03:54PM 40.0614 -85.9683 262° West 263 303 4,200 -2,100 Descending Indianapolis Center
03:55PM 40.0519 -86.0531 262° West 250 288 3,000 -900 Descending Indianapolis Center
03:56PM 40.0608 -86.1378 278° West 217 250 2,400 -480 Descending Indianapolis Center
03:57PM 40.0725 -86.2008 284° West 198 228 2,100 -480 Descending Indianapolis Center
03:58PM 40.0672 -86.2478 262° West 171 197 1,500 -480 Descending Indianapolis Center
03:59PM 40.0278 -86.2450 177° South 164 189 1,200 -180 Descending Indianapolis Center
04:01PM 40.0333 -86.2500 325° Northwest 130 150 1,100 -60 Descending Indianapolis TRACON
04:02PM 40.0333 -86.2500 360° North 130 150 1,100  Level Indianapolis TRACON
04:03PM 40.0333 -86.2500 360° North 130 150 1,100  Level Indianapolis TRACON
04:05PM 40.0333 -86.2500 360° North 130 150 1,100  Level Indianapolis TRACON
04:07PM 40.0333 -86.2500 360° North 130 150 1,100  Level Indianapolis TRACON